createdAt,value
2017-06-23T00:00:35.405Z,18.75
2017-06-23T00:01:35.380Z,18.75
2017-06-23T00:02:35.408Z,18.76
2017-06-23T00:03:50.050Z,18.78
2017-06-23T00:04:35.461Z,18.87
2017-06-23T00:05:50.102Z,18.9
2017-06-23T00:06:35.510Z,18.88
2017-06-23T00:07:35.533Z,18.78
2017-06-23T00:08:35.286Z,18.73
2017-06-23T00:09:35.587Z,18.81
2017-06-23T00:10:35.614Z,18.73
2017-06-23T00:11:35.637Z,18.7
2017-06-23T00:13:35.735Z,18.78
2017-06-23T00:14:35.716Z,18.82
2017-06-23T00:16:35.764Z,18.73
2017-06-23T00:17:50.409Z,18.67
2017-06-23T00:18:50.432Z,18.75
2017-06-23T00:19:35.847Z,18.82
2017-06-23T00:20:35.869Z,18.7
2017-06-23T00:21:35.892Z,18.67
2017-06-23T00:22:35.612Z,18.65
2017-06-23T00:23:35.942Z,18.55
2017-06-23T00:24:35.973Z,18.62
2017-06-23T00:25:35.993Z,18.65
2017-06-23T00:26:36.018Z,18.55
2017-06-23T00:27:36.043Z,18.54
2017-06-23T00:28:36.070Z,18.55
2017-06-23T00:29:36.104Z,18.55
2017-06-23T00:30:36.119Z,18.54
2017-06-23T00:32:36.171Z,18.48
2017-06-23T00:33:36.196Z,18.47
2017-06-23T00:34:50.840Z,18.51
2017-06-23T00:35:35.945Z,18.48
2017-06-23T00:36:35.968Z,18.41
2017-06-23T00:37:50.915Z,18.41
2017-06-23T00:38:36.020Z,18.47
2017-06-23T00:39:36.352Z,18.5
2017-06-23T00:40:36.426Z,18.57
2017-06-23T00:41:36.403Z,18.63
2017-06-23T00:42:36.424Z,18.62
2017-06-23T00:43:36.452Z,18.58
2017-06-23T00:44:36.483Z,18.48
2017-06-23T00:45:36.502Z,18.48
2017-06-23T00:46:36.529Z,18.44
2017-06-23T00:47:36.550Z,18.44
2017-06-23T00:49:36.606Z,18.41
2017-06-23T00:50:36.634Z,18.39
2017-06-23T00:51:36.656Z,18.41
2017-06-23T00:52:36.680Z,18.37
2017-06-23T00:53:51.324Z,18.42
2017-06-23T00:54:36.730Z,18.42
2017-06-23T00:55:36.453Z,18.37
2017-06-23T00:56:36.783Z,18.42
2017-06-23T00:57:36.807Z,18.33
2017-06-23T00:58:36.830Z,18.39
2017-06-23T00:59:36.861Z,18.37
2017-06-23T01:00:36.983Z,18.37
2017-06-23T01:01:36.909Z,18.42
2017-06-23T01:02:36.933Z,18.36
2017-06-23T01:03:36.958Z,18.3
2017-06-23T01:05:37.011Z,18.39
2017-06-23T01:06:36.733Z,18.41
2017-06-23T01:07:37.059Z,18.39
2017-06-23T01:08:37.087Z,18.39
2017-06-23T01:09:51.733Z,18.36
2017-06-23T01:10:37.138Z,18.45
2017-06-23T01:11:37.163Z,18.35
2017-06-23T01:12:37.189Z,18.36
2017-06-23T01:13:36.908Z,18.32
2017-06-23T01:14:36.934Z,18.42
2017-06-23T01:15:36.959Z,18.39
2017-06-23T01:16:37.288Z,18.35
2017-06-23T01:17:37.014Z,18.32
2017-06-23T01:18:37.337Z,18.39
2017-06-23T01:21:51.730Z,18.42
2017-06-23T01:22:51.755Z,18.27
2017-06-23T01:23:37.163Z,18.35
2017-06-23T01:24:37.492Z,18.39
2017-06-23T01:25:52.135Z,18.45
2017-06-23T01:26:37.542Z,18.39
2017-06-23T01:27:37.572Z,18.42
2017-06-23T01:28:37.592Z,18.33
2017-06-23T01:29:37.316Z,18.33
2017-06-23T01:30:37.644Z,18.32
2017-06-23T01:31:37.669Z,18.37
2017-06-23T01:32:37.696Z,18.3
2017-06-23T01:33:37.719Z,18.42
2017-06-23T01:34:37.745Z,18.39
2017-06-23T01:35:37.772Z,18.37
2017-06-23T01:36:37.794Z,18.36
2017-06-23T01:37:52.440Z,18.42
2017-06-23T01:38:37.851Z,18.41
2017-06-23T01:39:37.876Z,18.35
2017-06-23T01:40:52.517Z,18.27
2017-06-23T01:41:37.925Z,18.23
2017-06-23T01:42:37.948Z,18.27
2017-06-23T01:43:37.974Z,18.25
2017-06-23T01:44:37.693Z,18.39
2017-06-23T01:45:37.721Z,18.26
2017-06-23T01:46:37.744Z,18.29
2017-06-23T01:47:37.770Z,18.26
2017-06-23T01:48:38.098Z,18.33
2017-06-23T01:49:38.123Z,18.29
2017-06-23T01:50:38.149Z,18.27
2017-06-23T01:51:38.176Z,18.3
2017-06-23T01:52:38.199Z,18.23
2017-06-23T01:53:38.224Z,18.23
2017-06-23T01:54:52.867Z,18.26
2017-06-23T01:55:38.276Z,18.2
2017-06-23T01:56:38.301Z,18.2
2017-06-23T01:57:38.324Z,18.23
2017-06-23T01:58:38.048Z,18.32
2017-06-23T01:59:38.376Z,18.41
2017-06-23T02:00:38.401Z,18.45
2017-06-23T02:01:38.441Z,18.42
2017-06-23T02:02:38.518Z,18.3
2017-06-23T02:03:38.476Z,18.36
2017-06-23T02:04:38.503Z,18.36
2017-06-23T02:05:38.525Z,18.37
2017-06-23T02:06:38.553Z,18.3
2017-06-23T02:08:38.605Z,18.35
2017-06-23T02:09:53.245Z,18.29
2017-06-23T02:10:38.652Z,18.25
2017-06-23T02:11:38.677Z,18.26
2017-06-23T02:12:53.319Z,18.29
2017-06-23T02:13:38.745Z,18.27
2017-06-23T02:14:38.460Z,18.15
2017-06-23T02:15:38.776Z,18.11
2017-06-23T02:16:38.831Z,18.11
2017-06-23T02:17:38.829Z,18.14
2017-06-23T02:18:38.854Z,18.14
2017-06-23T02:19:38.879Z,18.1
2017-06-23T02:22:38.954Z,18.1
2017-06-23T02:23:38.976Z,18.14
2017-06-23T02:24:53.622Z,18.12
2017-06-23T02:25:53.646Z,18.11
2017-06-23T02:26:39.054Z,18.12
2017-06-23T02:27:39.078Z,18.08
2017-06-23T02:28:53.720Z,18.08
2017-06-23T02:29:39.129Z,18.07
2017-06-23T02:30:39.155Z,18.1
2017-06-23T02:31:39.181Z,17.96
2017-06-23T02:32:39.206Z,17.93
2017-06-23T02:33:39.229Z,18.02
2017-06-23T02:34:39.254Z,17.99
2017-06-23T02:35:39.279Z,18.02
2017-06-23T02:36:39.314Z,17.99
2017-06-23T02:37:39.327Z,17.89
2017-06-23T02:38:39.357Z,17.96
2017-06-23T02:39:39.381Z,18.07
2017-06-23T02:40:54.024Z,18.02
2017-06-23T02:41:54.047Z,18.1
2017-06-23T02:42:39.456Z,18.1
2017-06-23T02:43:39.484Z,18.1
2017-06-23T02:44:54.122Z,18.12
2017-06-23T02:45:39.233Z,18.14
2017-06-23T02:46:39.252Z,18.14
2017-06-23T02:47:39.580Z,18.11
2017-06-23T02:48:39.604Z,18.14
2017-06-23T02:49:39.629Z,18.14
2017-06-23T02:50:39.655Z,18.12
2017-06-23T02:51:39.679Z,18.18
2017-06-23T02:52:39.706Z,18.02
2017-06-23T02:53:39.737Z,17.99
2017-06-23T02:55:39.780Z,17.9
2017-06-23T02:57:54.448Z,17.84
2017-06-23T02:58:54.473Z,17.9
2017-06-23T02:59:54.497Z,17.92
2017-06-23T03:00:54.525Z,17.87
2017-06-23T03:01:39.937Z,17.93
2017-06-23T03:02:39.957Z,17.95
2017-06-23T03:03:39.981Z,17.96
2017-06-23T03:04:40.306Z,18.02
2017-06-23T03:05:40.031Z,17.95
2017-06-23T03:06:39.751Z,18
2017-06-23T03:07:40.079Z,17.96
2017-06-23T03:08:40.105Z,17.97
2017-06-23T03:09:40.129Z,18.05
2017-06-23T03:10:40.153Z,18.05
2017-06-23T03:12:40.204Z,18.1
2017-06-23T03:13:54.848Z,18.08
2017-06-23T03:14:40.255Z,18.1
2017-06-23T03:15:54.899Z,18.05
2017-06-23T03:16:40.004Z,18.12
2017-06-23T03:17:40.329Z,18.08
2017-06-23T03:18:40.358Z,18.14
2017-06-23T03:19:40.385Z,18.14
2017-06-23T03:20:40.102Z,18.11
2017-06-23T03:21:40.433Z,18.12
2017-06-23T03:23:40.481Z,18.11
2017-06-23T03:24:40.505Z,18.12
2017-06-23T03:25:40.532Z,18.14
2017-06-23T03:27:40.583Z,18.12
2017-06-23T03:28:40.611Z,18.26
2017-06-23T03:29:40.632Z,18.23
2017-06-23T03:30:40.654Z,18.26
2017-06-23T03:31:40.377Z,18.29
2017-06-23T03:32:40.704Z,18.27
2017-06-23T03:34:40.755Z,18.33
2017-06-23T03:35:40.779Z,18.39
2017-06-23T03:36:40.809Z,18.37
2017-06-23T03:37:40.833Z,18.35
2017-06-23T03:38:40.865Z,18.27
2017-06-23T03:40:40.906Z,18.37
2017-06-23T03:41:41.002Z,18.41
2017-06-23T03:42:40.973Z,18.41
2017-06-23T03:43:40.999Z,18.39
2017-06-23T03:44:41.025Z,18.36
2017-06-23T03:45:55.649Z,18.41
2017-06-23T03:46:41.060Z,18.41
2017-06-23T03:47:55.699Z,18.33
2017-06-23T03:48:55.736Z,18.39
2017-06-23T03:49:41.132Z,18.35
2017-06-23T03:50:41.169Z,18.44
2017-06-23T03:51:41.191Z,18.48
2017-06-23T03:52:41.207Z,18.5
2017-06-23T03:53:41.234Z,18.51
2017-06-23T03:54:41.271Z,18.58
2017-06-23T03:55:41.283Z,18.54
2017-06-23T03:56:41.308Z,18.51
2017-06-23T03:57:41.332Z,18.51
2017-06-23T03:58:41.360Z,18.63
2017-06-23T03:59:41.386Z,18.62
2017-06-23T04:00:56.027Z,18.63
2017-06-23T04:01:56.051Z,18.58
2017-06-23T04:02:41.457Z,18.65
2017-06-23T04:03:56.102Z,18.62
2017-06-23T04:04:41.509Z,18.69
2017-06-23T04:05:41.541Z,18.7
2017-06-23T04:06:41.563Z,18.73
2017-06-23T04:07:41.584Z,18.75
2017-06-23T04:08:41.307Z,18.8
2017-06-23T04:09:41.332Z,18.82
2017-06-23T04:10:41.661Z,18.88
2017-06-23T04:11:41.690Z,18.84
2017-06-23T04:12:41.711Z,18.87
2017-06-23T04:13:41.740Z,18.88
2017-06-23T04:14:41.763Z,19.02
2017-06-23T04:15:41.791Z,19.16
2017-06-23T04:16:56.429Z,19.22
2017-06-23T04:17:41.844Z,19.32
2017-06-23T04:18:41.863Z,19.31
2017-06-23T04:19:56.507Z,19.36
2017-06-23T04:20:41.914Z,19.41
2017-06-23T04:21:41.942Z,19.48
2017-06-23T04:22:41.965Z,19.41
2017-06-23T04:23:41.991Z,19.39
2017-06-23T04:24:42.019Z,19.4
2017-06-23T04:25:42.044Z,19.48
2017-06-23T04:26:42.070Z,19.47
2017-06-23T04:27:42.096Z,19.63
2017-06-23T04:28:42.218Z,19.69
2017-06-23T04:29:42.146Z,19.58
2017-06-23T04:30:42.170Z,19.71
2017-06-23T04:31:42.198Z,19.77
2017-06-23T04:32:42.222Z,19.8
2017-06-23T04:33:42.248Z,19.78
2017-06-23T04:34:42.276Z,19.71
2017-06-23T04:35:56.919Z,19.74
2017-06-23T04:36:42.025Z,19.76
2017-06-23T04:37:42.352Z,19.63
2017-06-23T04:38:42.384Z,19.62
2017-06-23T04:39:42.403Z,19.76
2017-06-23T04:40:42.428Z,19.54
2017-06-23T04:41:42.454Z,19.77
2017-06-23T04:42:42.482Z,19.59
2017-06-23T04:43:42.507Z,19.68
2017-06-23T04:44:42.532Z,19.61
2017-06-23T04:46:57.203Z,19.74
2017-06-23T04:47:42.609Z,19.77
2017-06-23T04:48:57.253Z,19.83
2017-06-23T04:49:42.662Z,19.87
2017-06-23T04:50:57.354Z,20.06
2017-06-23T04:51:42.409Z,19.99
2017-06-23T04:52:42.740Z,19.96
2017-06-23T04:53:42.765Z,19.91
2017-06-23T04:55:42.517Z,19.78
2017-06-23T04:56:42.897Z,19.68
2017-06-23T04:57:42.867Z,19.59
2017-06-23T04:58:42.896Z,19.66
2017-06-23T04:59:42.926Z,19.66
2017-06-23T05:00:42.951Z,19.56
2017-06-23T05:02:42.998Z,19.41
2017-06-23T05:03:43.022Z,19.41
2017-06-23T05:04:43.051Z,19.43
2017-06-23T05:05:43.076Z,19.4
2017-06-23T05:06:43.102Z,19.48
2017-06-23T05:07:43.135Z,19.4
2017-06-23T05:08:43.152Z,19.41
2017-06-23T05:09:43.180Z,19.33
2017-06-23T05:10:43.205Z,19.31
2017-06-23T05:11:43.228Z,19.26
2017-06-23T05:12:43.257Z,19.31
2017-06-23T05:13:43.293Z,19.33
2017-06-23T05:14:43.304Z,19.32
2017-06-23T05:17:43.433Z,19.25
2017-06-23T05:18:58.027Z,19.07
2017-06-23T05:19:43.437Z,19.19
2017-06-23T05:20:43.460Z,19.14
2017-06-23T05:21:43.487Z,19.1
2017-06-23T05:22:58.130Z,19.1
2017-06-23T05:23:43.236Z,19.1
2017-06-23T05:24:43.562Z,19.11
2017-06-23T05:25:43.586Z,19.11
2017-06-23T05:26:43.612Z,19.19
2017-06-23T05:27:43.637Z,19.21
2017-06-23T05:28:43.665Z,19.22
2017-06-23T05:29:43.688Z,19.18
2017-06-23T05:30:43.765Z,19.18
2017-06-23T05:31:43.741Z,19.1
2017-06-23T05:32:43.764Z,19.19
2017-06-23T05:33:43.791Z,19.13
2017-06-23T05:34:58.436Z,19.13
2017-06-23T05:35:43.846Z,19.14
2017-06-23T05:36:58.485Z,19.11
2017-06-23T05:37:43.892Z,19.08
2017-06-23T05:38:58.536Z,19.11
2017-06-23T05:39:43.944Z,19.02
2017-06-23T05:40:43.971Z,19.08
2017-06-23T05:41:43.993Z,19.06
2017-06-23T05:42:44.022Z,19
2017-06-23T05:43:44.045Z,18.95
2017-06-23T05:44:44.071Z,19.02
2017-06-23T05:45:44.101Z,19.06
2017-06-23T05:47:44.151Z,18.99
2017-06-23T05:48:43.870Z,18.98
2017-06-23T05:49:43.900Z,19.04
2017-06-23T05:50:43.920Z,18.99
2017-06-23T05:51:58.866Z,19
2017-06-23T05:52:58.891Z,18.99
2017-06-23T05:53:44.299Z,18.88
2017-06-23T05:54:58.944Z,18.85
2017-06-23T05:55:44.047Z,18.91
2017-06-23T05:56:44.074Z,18.92
2017-06-23T05:57:44.403Z,18.9
2017-06-23T05:58:44.126Z,18.84
2017-06-23T05:59:44.150Z,18.91
2017-06-23T06:00:44.477Z,18.98
2017-06-23T06:01:44.504Z,18.99
2017-06-23T06:02:44.225Z,19.04
2017-06-23T06:04:44.578Z,18.92
2017-06-23T06:05:44.611Z,18.88
2017-06-23T06:06:44.629Z,18.9
2017-06-23T06:07:44.653Z,18.92
2017-06-23T06:08:59.298Z,18.9
2017-06-23T06:09:44.707Z,18.95
2017-06-23T06:10:59.046Z,18.9
2017-06-23T06:11:44.756Z,18.88
2017-06-23T06:12:44.782Z,18.82
2017-06-23T06:13:44.807Z,18.8
2017-06-23T06:14:44.833Z,18.82
2017-06-23T06:15:44.858Z,18.85
2017-06-23T06:16:44.935Z,18.9
2017-06-23T06:17:44.907Z,18.92
2017-06-23T06:18:44.933Z,18.88
2017-06-23T06:20:44.983Z,18.95
2017-06-23T06:22:45.033Z,18.95
2017-06-23T06:23:45.111Z,19.04
2017-06-23T06:24:45.093Z,18.99
2017-06-23T06:25:59.731Z,18.84
2017-06-23T06:26:45.140Z,18.91
2017-06-23T06:27:45.211Z,18.9
2017-06-23T06:28:44.934Z,18.87
2017-06-23T06:29:45.215Z,18.88
2017-06-23T06:30:45.440Z,18.91
2017-06-23T06:31:44.959Z,18.98
2017-06-23T06:32:45.289Z,18.95
2017-06-23T06:33:45.317Z,19.06
2017-06-23T06:34:45.040Z,19
2017-06-23T06:35:45.365Z,19.06
2017-06-23T06:38:00.036Z,19.19
2017-06-23T06:38:45.441Z,19.21
2017-06-23T06:39:45.467Z,19.18
2017-06-23T06:40:45.545Z,19.32
2017-06-23T06:41:45.519Z,19.33
2017-06-23T06:42:45.545Z,19.37
2017-06-23T06:43:45.568Z,19.37
2017-06-23T06:44:45.594Z,19.36
2017-06-23T06:45:45.920Z,19.29
2017-06-23T06:46:45.340Z,19.32
2017-06-23T06:47:45.692Z,19.29
2017-06-23T06:48:45.697Z,19.4
2017-06-23T06:49:45.725Z,19.44
2017-06-23T06:50:45.849Z,19.47
2017-06-23T06:51:45.773Z,19.32
2017-06-23T06:53:45.874Z,19.33
2017-06-23T06:54:45.850Z,19.33
2017-06-23T06:55:45.875Z,19.36
2017-06-23T06:56:45.901Z,19.32
2017-06-23T06:58:00.544Z,19.39
2017-06-23T06:58:45.958Z,19.41
2017-06-23T06:59:46.029Z,19.26
2017-06-23T07:01:46.042Z,19.19
2017-06-23T07:02:45.751Z,19.25
2017-06-23T07:03:46.082Z,19.18
2017-06-23T07:04:46.104Z,19.23
2017-06-23T07:05:46.131Z,19.28
2017-06-23T07:06:46.156Z,19.21
2017-06-23T07:07:46.186Z,19.19
2017-06-23T07:08:46.207Z,19.23
2017-06-23T07:09:46.243Z,19.19
2017-06-23T07:10:46.260Z,19.11
2017-06-23T07:11:45.677Z,19.13
2017-06-23T07:12:46.314Z,19.14
2017-06-23T07:14:00.953Z,19.16
2017-06-23T07:14:46.359Z,19.13
2017-06-23T07:15:46.387Z,19.08
2017-06-23T07:16:46.413Z,19.11
2017-06-23T07:17:46.436Z,19.13
2017-06-23T07:18:46.461Z,19.16
2017-06-23T07:19:46.489Z,19.29
2017-06-23T07:20:46.209Z,19.23
2017-06-23T07:23:46.592Z,19.16
2017-06-23T07:24:46.616Z,19.4
2017-06-23T07:26:01.260Z,19.36
2017-06-23T07:26:46.668Z,19.48
2017-06-23T07:27:46.694Z,19.61
2017-06-23T07:28:46.720Z,19.68
2017-06-23T07:30:01.358Z,19.61
2017-06-23T07:30:46.767Z,19.66
2017-06-23T07:31:46.793Z,19.59
2017-06-23T07:32:46.516Z,19.61
2017-06-23T07:33:46.845Z,19.74
2017-06-23T07:34:46.567Z,19.76
2017-06-23T07:35:46.901Z,19.71
2017-06-23T07:36:46.970Z,19.66
2017-06-23T07:37:46.947Z,19.81
2017-06-23T07:38:46.973Z,19.8
2017-06-23T07:39:47.000Z,19.86
2017-06-23T07:40:46.418Z,19.95
2017-06-23T07:41:47.050Z,20.01
2017-06-23T07:42:46.466Z,20.02
2017-06-23T07:43:46.797Z,20.11
2017-06-23T07:44:46.823Z,20.14
2017-06-23T07:46:01.770Z,19.86
2017-06-23T07:46:47.228Z,19.78
2017-06-23T07:47:47.203Z,19.62
2017-06-23T07:48:47.229Z,19.51
2017-06-23T07:49:46.952Z,19.4
2017-06-23T07:50:47.280Z,19.37
2017-06-23T07:51:47.306Z,19.41
2017-06-23T07:52:47.332Z,19.56
2017-06-23T07:53:47.053Z,19.68
2017-06-23T07:54:47.384Z,19.69
2017-06-23T07:55:47.106Z,19.76
2017-06-23T07:56:47.436Z,19.74
2017-06-23T07:57:47.159Z,19.91
2017-06-23T07:59:02.105Z,20.35
2017-06-23T07:59:46.904Z,20.89
2017-06-23T08:01:01.854Z,21.52
2017-06-23T08:01:47.565Z,21.84
2017-06-23T08:02:47.593Z,22.1
2017-06-23T08:03:47.622Z,21.88
2017-06-23T08:04:47.648Z,22.05
2017-06-23T08:05:47.670Z,21.98
2017-06-23T08:06:47.697Z,22.15
2017-06-23T08:08:47.753Z,22.02
2017-06-23T08:09:47.778Z,21.84
2017-06-23T08:10:47.854Z,21.74
2017-06-23T08:11:47.834Z,21.64
2017-06-23T08:12:47.858Z,21.58
2017-06-23T08:14:02.505Z,21.37
2017-06-23T08:14:47.914Z,21.38
2017-06-23T08:15:47.940Z,21.53
2017-06-23T08:16:47.967Z,22
2017-06-23T08:17:48.042Z,22.24
2017-06-23T08:18:48.021Z,22.85
2017-06-23T08:19:48.061Z,22.92
2017-06-23T08:20:48.074Z,23.07
2017-06-23T08:21:48.105Z,23.19
2017-06-23T08:22:48.133Z,23.27
2017-06-23T08:23:48.158Z,23.23
2017-06-23T08:24:48.185Z,23.01
2017-06-23T08:25:48.215Z,22.9
2017-06-23T08:26:48.263Z,23.36
2017-06-23T08:30:02.945Z,24.47
2017-06-23T08:30:48.355Z,24.67
2017-06-23T08:31:48.386Z,25.33
2017-06-23T08:33:03.031Z,25.91
2017-06-23T08:33:48.440Z,26.4
2017-06-23T08:34:48.167Z,26.66
2017-06-23T08:35:48.498Z,26.3
2017-06-23T08:36:48.580Z,25.8
2017-06-23T08:37:48.561Z,26.44
2017-06-23T08:38:48.591Z,26.69
2017-06-23T08:39:48.667Z,26.39
2017-06-23T08:40:48.705Z,26.25
2017-06-23T08:42:48.405Z,26.77
2017-06-23T08:43:48.745Z,26.95
2017-06-23T08:45:03.391Z,26.58
2017-06-23T08:45:48.801Z,26.17
2017-06-23T08:46:48.832Z,25.5
2017-06-23T08:47:48.863Z,25.3
2017-06-23T08:49:03.514Z,24.84
2017-06-23T08:49:48.923Z,24.58
2017-06-23T08:50:48.954Z,24.53
2017-06-23T08:51:48.987Z,24.43
2017-06-23T08:52:49.013Z,24.31
2017-06-23T08:53:48.739Z,24.43
2017-06-23T08:54:49.075Z,24.43
2017-06-23T08:56:49.147Z,24.16
2017-06-23T08:57:49.163Z,24.2
2017-06-23T08:58:49.244Z,24.28
2017-06-23T08:59:49.222Z,24.43
2017-06-23T09:00:49.455Z,24.83
2017-06-23T09:02:03.900Z,25.18
2017-06-23T09:02:49.311Z,25.1
2017-06-23T09:03:49.338Z,24.91
2017-06-23T09:05:03.987Z,24.55
2017-06-23T09:05:49.403Z,24.35
2017-06-23T09:06:49.426Z,24.39
2017-06-23T09:07:49.458Z,24.43
2017-06-23T09:08:49.488Z,24.47
2017-06-23T09:09:49.518Z,24.49
2017-06-23T09:10:49.241Z,24.61
2017-06-23T09:11:48.969Z,24.4
2017-06-23T09:12:49.601Z,24.49
2017-06-23T09:13:49.636Z,24.62
2017-06-23T09:16:49.718Z,24.6
2017-06-23T09:17:49.750Z,24.6
2017-06-23T09:18:49.473Z,24.43
2017-06-23T09:19:49.808Z,24.47
2017-06-23T09:21:04.462Z,24.55
2017-06-23T09:21:49.867Z,24.4
2017-06-23T09:22:49.894Z,24.35
2017-06-23T09:23:49.990Z,24.34
2017-06-23T09:24:49.950Z,24.35
2017-06-23T09:25:49.982Z,24.4
2017-06-23T09:26:50.008Z,24.45
2017-06-23T09:28:50.091Z,24.78
2017-06-23T09:29:50.094Z,24.98
2017-06-23T09:31:50.153Z,24.88
2017-06-23T09:32:50.230Z,25.1
2017-06-23T09:33:49.911Z,25.17
2017-06-23T09:34:49.936Z,25.14
2017-06-23T09:36:04.887Z,25.21
2017-06-23T09:36:50.298Z,25.2
2017-06-23T09:37:50.023Z,25.05
2017-06-23T09:38:50.356Z,25.08
2017-06-23T09:39:50.383Z,24.95
2017-06-23T09:40:50.411Z,24.73
2017-06-23T09:41:50.135Z,24.78
2017-06-23T09:42:50.469Z,24.98
2017-06-23T09:43:50.497Z,25.17
2017-06-23T09:44:50.528Z,25.33
2017-06-23T09:45:50.554Z,25.28
2017-06-23T09:47:05.204Z,25.35
2017-06-23T09:48:04.928Z,25.61
2017-06-23T09:48:50.644Z,25.57
2017-06-23T09:49:50.673Z,25.61
2017-06-23T09:50:50.700Z,25.38
2017-06-23T09:51:50.728Z,25.4
2017-06-23T09:52:50.757Z,25.54
2017-06-23T09:53:50.792Z,25.35
2017-06-23T09:54:50.815Z,25.2
2017-06-23T09:55:50.842Z,25.05
2017-06-23T09:56:50.881Z,25.08
2017-06-23T09:58:50.932Z,24.39
2017-06-23T09:59:50.959Z,24.35
2017-06-23T10:00:51.139Z,24.4
2017-06-23T10:01:50.714Z,24.42
2017-06-23T10:03:05.361Z,24.45
2017-06-23T10:03:51.075Z,24.57
2017-06-23T10:04:50.798Z,24.53
2017-06-23T10:05:51.131Z,24.77
2017-06-23T10:06:51.160Z,24.98
2017-06-23T10:08:05.806Z,25.09
2017-06-23T10:08:51.218Z,25.2
2017-06-23T10:09:51.247Z,25.21
2017-06-23T10:10:51.272Z,25.32
2017-06-23T10:11:51.302Z,25.05
2017-06-23T10:12:51.331Z,24.99
2017-06-23T10:13:51.382Z,24.99
2017-06-23T10:14:51.388Z,24.95
2017-06-23T10:15:51.415Z,25.05
2017-06-23T10:16:51.443Z,25.2
2017-06-23T10:18:51.503Z,25.05
2017-06-23T10:20:06.149Z,24.91
2017-06-23T10:21:06.176Z,24.87
2017-06-23T10:21:51.591Z,24.78
2017-06-23T10:22:51.313Z,24.71
2017-06-23T10:24:06.264Z,24.73
2017-06-23T10:24:51.674Z,24.57
2017-06-23T10:25:51.702Z,24.46
2017-06-23T10:26:51.727Z,24.16
2017-06-23T10:27:51.808Z,24.15
2017-06-23T10:28:51.784Z,24.24
2017-06-23T10:29:51.813Z,24.45
2017-06-23T10:30:51.840Z,24.46
2017-06-23T10:31:51.870Z,24.55
2017-06-23T10:32:51.895Z,24.65
2017-06-23T10:33:51.929Z,24.81
2017-06-23T10:34:51.953Z,24.71
2017-06-23T10:36:06.602Z,24.73
2017-06-23T10:36:52.059Z,24.64
2017-06-23T10:37:52.040Z,24.77
2017-06-23T10:38:52.066Z,24.55
2017-06-23T10:40:06.713Z,24.42
2017-06-23T10:40:52.125Z,24.45
2017-06-23T10:41:52.151Z,24.52
2017-06-23T10:42:51.877Z,24.46
2017-06-23T10:43:52.207Z,24.43
2017-06-23T10:44:52.234Z,24.47
2017-06-23T10:45:52.263Z,24.42
2017-06-23T10:46:52.290Z,24.32
2017-06-23T10:47:52.318Z,24.13
2017-06-23T10:48:52.043Z,24.06
2017-06-23T10:51:52.437Z,24.13
2017-06-23T10:52:52.455Z,24.03
2017-06-23T10:54:07.104Z,24.12
2017-06-23T10:54:52.518Z,24.1
2017-06-23T10:56:07.160Z,24.1
2017-06-23T10:56:52.569Z,24.09
2017-06-23T10:57:52.598Z,24.24
2017-06-23T10:58:52.625Z,24.12
2017-06-23T10:59:52.702Z,24.27
2017-06-23T11:00:52.682Z,24.31
2017-06-23T11:01:52.712Z,24.37
2017-06-23T11:02:52.739Z,24.4
2017-06-23T11:03:52.766Z,24.42
2017-06-23T11:04:52.800Z,24.49
2017-06-23T11:05:52.567Z,24.43
2017-06-23T11:07:07.470Z,24.24
2017-06-23T11:07:52.878Z,24.27
2017-06-23T11:08:52.910Z,24.27
2017-06-23T11:09:52.933Z,24.28
2017-06-23T11:11:07.583Z,24.08
2017-06-23T11:11:52.690Z,24
2017-06-23T11:12:52.717Z,24.16
2017-06-23T11:13:53.046Z,23.87
2017-06-23T11:14:53.073Z,23.83
2017-06-23T11:15:53.105Z,23.75
2017-06-23T11:16:53.126Z,23.72
2017-06-23T11:21:07.858Z,23.78
2017-06-23T11:21:53.268Z,23.8
2017-06-23T11:23:07.937Z,23.91
2017-06-23T11:23:53.324Z,23.95
2017-06-23T11:24:53.047Z,24.15
2017-06-23T11:25:53.381Z,24.09
2017-06-23T11:26:53.101Z,24.22
2017-06-23T11:27:53.435Z,24.45
2017-06-23T11:28:53.459Z,24.3
2017-06-23T11:29:53.486Z,24.2
2017-06-23T11:30:53.517Z,24.27
2017-06-23T11:32:53.571Z,24.32
2017-06-23T11:33:53.602Z,24.25
2017-06-23T11:35:53.706Z,24.52
2017-06-23T11:36:53.685Z,24.57
2017-06-23T11:37:53.710Z,24.43
2017-06-23T11:38:53.433Z,24.47
2017-06-23T11:39:53.767Z,24.49
2017-06-23T11:40:53.792Z,24.39
2017-06-23T11:41:53.821Z,24.34
2017-06-23T11:43:08.518Z,24.55
2017-06-23T11:43:53.874Z,24.5
2017-06-23T11:44:53.907Z,24.58
2017-06-23T11:45:53.628Z,24.53
2017-06-23T11:46:53.960Z,24.76
2017-06-23T11:47:53.985Z,24.77
2017-06-23T11:48:54.017Z,24.87
2017-06-23T11:49:54.043Z,24.77
2017-06-23T11:51:54.100Z,25
2017-06-23T11:52:54.125Z,25.1
2017-06-23T11:53:53.851Z,25.17
2017-06-23T11:54:54.181Z,25.1
2017-06-23T11:55:54.213Z,25.18
2017-06-23T11:56:54.239Z,25.39
2017-06-23T11:57:54.265Z,25.46
2017-06-23T11:59:08.912Z,25.69
2017-06-23T11:59:54.320Z,25.65
2017-06-23T12:00:54.350Z,25.52
2017-06-23T12:01:54.376Z,25.45
2017-06-23T12:02:54.406Z,25.32
2017-06-23T12:03:54.434Z,25.4
2017-06-23T12:04:54.463Z,25.61
2017-06-23T12:05:54.494Z,25.64
2017-06-23T12:06:54.517Z,25.7
2017-06-23T12:07:54.552Z,25.65
2017-06-23T12:08:54.276Z,25.8
2017-06-23T12:09:54.601Z,25.85
2017-06-23T12:10:54.633Z,25.8
2017-06-23T12:11:54.658Z,25.8
2017-06-23T12:12:54.694Z,25.8
2017-06-23T12:13:54.718Z,25.67
2017-06-23T12:15:09.365Z,25.36
2017-06-23T12:15:54.777Z,25.27
2017-06-23T12:16:54.803Z,25.15
2017-06-23T12:17:54.831Z,25.09
2017-06-23T12:18:54.857Z,25
2017-06-23T12:19:54.887Z,24.96
2017-06-23T12:20:54.611Z,24.9
2017-06-23T12:21:54.947Z,24.76
2017-06-23T12:24:09.671Z,24.46
2017-06-23T12:26:09.675Z,24.13
2017-06-23T12:26:55.082Z,24.34
2017-06-23T12:27:55.113Z,24.27
2017-06-23T12:28:55.140Z,24.34
2017-06-23T12:30:09.784Z,24.35
2017-06-23T12:31:09.549Z,24.22
2017-06-23T12:31:55.223Z,24.1
2017-06-23T12:32:55.254Z,24.12
2017-06-23T12:33:55.277Z,24.06
2017-06-23T12:34:55.309Z,23.95
2017-06-23T12:35:55.336Z,24.02
2017-06-23T12:36:55.363Z,24.02
2017-06-23T12:37:55.389Z,24
2017-06-23T12:38:55.418Z,23.97
2017-06-23T12:39:55.497Z,24.09
2017-06-23T12:40:55.476Z,24.09
2017-06-23T12:42:10.119Z,24.1
2017-06-23T12:43:10.146Z,23.91
2017-06-23T12:44:10.174Z,23.9
2017-06-23T12:44:55.588Z,23.88
2017-06-23T12:46:10.230Z,23.94
2017-06-23T12:46:55.638Z,23.78
2017-06-23T12:47:55.667Z,23.79
2017-06-23T12:48:55.695Z,23.9
2017-06-23T12:49:55.421Z,24.09
2017-06-23T12:50:55.752Z,24.34
2017-06-23T12:51:55.775Z,24.46
2017-06-23T12:53:10.478Z,24.6
2017-06-23T12:53:55.529Z,24.68
2017-06-23T12:54:55.859Z,24.9
2017-06-23T12:55:55.889Z,25.05
2017-06-23T12:56:55.920Z,25.28
2017-06-23T12:57:55.640Z,25.28
2017-06-23T12:59:10.588Z,25.38
2017-06-23T12:59:56.001Z,25.39
2017-06-23T13:00:56.029Z,25.28
2017-06-23T13:01:55.752Z,25.36
2017-06-23T13:02:55.779Z,25.13
2017-06-23T13:03:55.804Z,25.36
2017-06-23T13:04:56.139Z,25.35
2017-06-23T13:05:56.164Z,25.4
2017-06-23T13:06:56.196Z,25.5
2017-06-23T13:07:56.272Z,25.67
2017-06-23T13:08:56.253Z,25.69
2017-06-23T13:09:56.280Z,25.69
2017-06-23T13:10:56.306Z,25.85
2017-06-23T13:11:56.334Z,25.8
2017-06-23T13:12:56.363Z,25.97
2017-06-23T13:13:56.085Z,25.88
2017-06-23T13:14:56.417Z,25.94
2017-06-23T13:15:56.147Z,26.07
2017-06-23T13:16:56.473Z,26.18
2017-06-23T13:18:11.124Z,26.45
2017-06-23T13:18:56.531Z,26.52
2017-06-23T13:19:56.559Z,26.52
2017-06-23T13:20:56.588Z,26.43
2017-06-23T13:21:56.621Z,26.29
2017-06-23T13:22:56.648Z,26.18
2017-06-23T13:23:56.673Z,25.91
2017-06-23T13:24:56.702Z,25.87
2017-06-23T13:26:56.762Z,26.35
2017-06-23T13:28:11.410Z,26.21
2017-06-23T13:29:56.546Z,26.43
2017-06-23T13:30:56.879Z,26.1
2017-06-23T13:31:56.906Z,26.23
2017-06-23T13:32:56.934Z,26.29
2017-06-23T13:34:11.579Z,26.32
2017-06-23T13:34:56.991Z,26.23
2017-06-23T13:35:57.069Z,25.92
2017-06-23T13:36:57.049Z,25.69
2017-06-23T13:37:56.772Z,25.46
2017-06-23T13:38:57.106Z,25.3
2017-06-23T13:40:57.162Z,25.23
2017-06-23T13:41:57.191Z,25.28
2017-06-23T13:42:57.217Z,25.32
2017-06-23T13:43:57.250Z,25.24
2017-06-23T13:44:57.279Z,25.35
2017-06-23T13:45:57.309Z,25.42
2017-06-23T13:46:57.334Z,25.35
2017-06-23T13:47:57.361Z,25.39
2017-06-23T13:48:57.391Z,25.54
2017-06-23T13:50:12.035Z,25.7
2017-06-23T13:50:57.447Z,25.7
2017-06-23T13:51:57.474Z,25.46